South Windsor, Connecticut
Current Conditions -  °F | °C
As of 10:53 PM on Thursday 20 Nov 2014 (Local Time) from KHFD Reporting Station
Broken Clouds Broken Clouds  
Wind Chill: 25°   Ceiling: 12000
Heat Index: 31°   Visibility: 10mi
Dew Point: 19°   Wind: 6mph
Humidity: 61%   Direction: NA
Pressure: 29.95"   Gusts: NA
Location:  41.82°N, 72.62°W
Report Text: KHFD 210353Z AUTO VRB05KT 10SM BKN120 M01/M07 A2995 RMK AO2 SLP141 T10061072
Loading
Personal Weather Stations






























Interactive Weather Map New forecast layout! Learn more

10-Day Weather Forecast

Advertisements
Track Severe Weather on mobile